sensor_id;sensor_type;location;lat;lon;timestamp;P1;durP1;ratioP1;P2;durP2;ratioP2
9547;SDS011;4812;51.992;8.648;2022-08-21T00:00:33;10.57;;;8.83;;
9547;SDS011;4812;51.992;8.648;2022-08-21T00:03:03;10.33;;;8.80;;
9547;SDS011;4812;51.992;8.648;2022-08-21T00:05:34;10.10;;;9.13;;
9547;SDS011;4812;51.992;8.648;2022-08-21T00:08:03;9.67;;;8.87;;
9547;SDS011;4812;51.992;8.648;2022-08-21T00:10:31;13.53;;;9.20;;
9547;SDS011;4812;51.992;8.648;2022-08-21T00:12:59;10.37;;;9.13;;
9547;SDS011;4812;51.992;8.648;2022-08-21T00:15:28;10.60;;;9.17;;
9547;SDS011;4812;51.992;8.648;2022-08-21T00:17:57;10.27;;;9.23;;
9547;SDS011;4812;51.992;8.648;2022-08-21T00:20:26;11.57;;;10.27;;
9547;SDS011;4812;51.992;8.648;2022-08-21T00:22:54;12.53;;;9.60;;
9547;SDS011;4812;51.992;8.648;2022-08-21T00:25:22;13.73;;;10.00;;
9547;SDS011;4812;51.992;8.648;2022-08-21T00:27:51;11.87;;;10.70;;
9547;SDS011;4812;51.992;8.648;2022-08-21T00:30:19;12.00;;;10.47;;
9547;SDS011;4812;51.992;8.648;2022-08-21T00:32:49;12.70;;;10.90;;
9547;SDS011;4812;51.992;8.648;2022-08-21T00:35:18;11.97;;;10.80;;
9547;SDS011;4812;51.992;8.648;2022-08-21T00:37:49;13.37;;;10.53;;
9547;SDS011;4812;51.992;8.648;2022-08-21T00:40:19;12.20;;;11.10;;
9547;SDS011;4812;51.992;8.648;2022-08-21T00:42:49;11.27;;;10.23;;
9547;SDS011;4812;51.992;8.648;2022-08-21T00:45:19;11.50;;;10.30;;
9547;SDS011;4812;51.992;8.648;2022-08-21T00:47:47;12.13;;;10.87;;
9547;SDS011;4812;51.992;8.648;2022-08-21T00:50:14;11.43;;;10.27;;
9547;SDS011;4812;51.992;8.648;2022-08-21T00:52:47;14.90;;;11.23;;
9547;SDS011;4812;51.992;8.648;2022-08-21T00:55:18;14.80;;;11.13;;
9547;SDS011;4812;51.992;8.648;2022-08-21T00:57:49;11.77;;;10.67;;
9547;SDS011;4812;51.992;8.648;2022-08-21T01:00:19;12.07;;;10.43;;
9547;SDS011;4812;51.992;8.648;2022-08-21T01:02:52;12.57;;;10.97;;
9547;SDS011;4812;51.992;8.648;2022-08-21T01:05:20;11.20;;;10.03;;
9547;SDS011;4812;51.992;8.648;2022-08-21T01:07:48;11.73;;;10.57;;
9547;SDS011;4812;51.992;8.648;2022-08-21T01:10:17;12.00;;;10.67;;
9547;SDS011;4812;51.992;8.648;2022-08-21T01:12:50;11.53;;;10.10;;
9547;SDS011;4812;51.992;8.648;2022-08-21T01:15:18;10.57;;;9.73;;
9547;SDS011;4812;51.992;8.648;2022-08-21T01:17:47;12.73;;;10.97;;
9547;SDS011;4812;51.992;8.648;2022-08-21T01:20:15;13.03;;;10.93;;
9547;SDS011;4812;51.992;8.648;2022-08-21T01:22:44;12.00;;;10.80;;
9547;SDS011;4812;51.992;8.648;2022-08-21T01:25:13;15.27;;;11.63;;
9547;SDS011;4812;51.992;8.648;2022-08-21T01:27:42;18.10;;;10.37;;
9547;SDS011;4812;51.992;8.648;2022-08-21T01:30:11;13.83;;;10.10;;
9547;SDS011;4812;51.992;8.648;2022-08-21T01:32:41;13.67;;;9.57;;
9547;SDS011;4812;51.992;8.648;2022-08-21T01:35:09;11.90;;;10.20;;
9547;SDS011;4812;51.992;8.648;2022-08-21T01:37:38;11.37;;;10.33;;
9547;SDS011;4812;51.992;8.648;2022-08-21T01:40:08;10.43;;;9.43;;
9547;SDS011;4812;51.992;8.648;2022-08-21T01:42:37;11.33;;;10.20;;
9547;SDS011;4812;51.992;8.648;2022-08-21T01:45:05;12.97;;;10.70;;
9547;SDS011;4812;51.992;8.648;2022-08-21T01:47:34;10.93;;;9.93;;
9547;SDS011;4812;51.992;8.648;2022-08-21T01:50:03;19.60;;;13.70;;
9547;SDS011;4812;51.992;8.648;2022-08-21T01:52:31;12.57;;;10.67;;
9547;SDS011;4812;51.992;8.648;2022-08-21T01:54:58;16.33;;;11.60;;
9547;SDS011;4812;51.992;8.648;2022-08-21T01:57:27;14.20;;;11.00;;
9547;SDS011;4812;51.992;8.648;2022-08-21T01:59:55;12.63;;;11.30;;
9547;SDS011;4812;51.992;8.648;2022-08-21T02:02:22;19.43;;;12.17;;
9547;SDS011;4812;51.992;8.648;2022-08-21T02:04:50;12.90;;;11.27;;
9547;SDS011;4812;51.992;8.648;2022-08-21T02:07:20;14.23;;;11.53;;
9547;SDS011;4812;51.992;8.648;2022-08-21T02:09:53;14.93;;;12.63;;
9547;SDS011;4812;51.992;8.648;2022-08-21T02:13:27;18.17;;;11.87;;
9547;SDS011;4812;51.992;8.648;2022-08-21T02:15:55;14.00;;;12.43;;
9547;SDS011;4812;51.992;8.648;2022-08-21T02:18:23;23.57;;;14.97;;
9547;SDS011;4812;51.992;8.648;2022-08-21T02:20:51;33.30;;;20.20;;
9547;SDS011;4812;51.992;8.648;2022-08-21T02:23:21;24.23;;;15.83;;
9547;SDS011;4812;51.992;8.648;2022-08-21T02:25:52;24.33;;;14.37;;
9547;SDS011;4812;51.992;8.648;2022-08-21T02:28:20;15.77;;;13.37;;
9547;SDS011;4812;51.992;8.648;2022-08-21T02:30:50;18.47;;;12.87;;
9547;SDS011;4812;51.992;8.648;2022-08-21T02:33:22;20.13;;;13.03;;
9547;SDS011;4812;51.992;8.648;2022-08-21T02:35:50;19.50;;;13.13;;
9547;SDS011;4812;51.992;8.648;2022-08-21T02:38:19;16.40;;;12.70;;
9547;SDS011;4812;51.992;8.648;2022-08-21T02:40:48;17.57;;;12.53;;
9547;SDS011;4812;51.992;8.648;2022-08-21T02:43:17;34.17;;;19.63;;
9547;SDS011;4812;51.992;8.648;2022-08-21T02:45:45;32.97;;;19.77;;
9547;SDS011;4812;51.992;8.648;2022-08-21T02:48:18;34.40;;;21.73;;
9547;SDS011;4812;51.992;8.648;2022-08-21T02:50:48;33.40;;;20.90;;
9547;SDS011;4812;51.992;8.648;2022-08-21T02:53:19;36.73;;;22.23;;
9547;SDS011;4812;51.992;8.648;2022-08-21T02:55:47;33.63;;;22.93;;
9547;SDS011;4812;51.992;8.648;2022-08-21T02:58:16;34.50;;;21.50;;
9547;SDS011;4812;51.992;8.648;2022-08-21T03:00:45;39.40;;;22.93;;
9547;SDS011;4812;51.992;8.648;2022-08-21T03:03:13;32.23;;;22.50;;
9547;SDS011;4812;51.992;8.648;2022-08-21T03:05:44;34.53;;;23.13;;
9547;SDS011;4812;51.992;8.648;2022-08-21T03:08:12;31.80;;;22.03;;
9547;SDS011;4812;51.992;8.648;2022-08-21T03:10:42;36.10;;;23.30;;
9547;SDS011;4812;51.992;8.648;2022-08-21T03:13:11;29.33;;;22.40;;
9547;SDS011;4812;51.992;8.648;2022-08-21T03:15:40;27.33;;;20.97;;
9547;SDS011;4812;51.992;8.648;2022-08-21T03:18:10;26.03;;;20.97;;
9547;SDS011;4812;51.992;8.648;2022-08-21T03:20:39;31.00;;;21.37;;
9547;SDS011;4812;51.992;8.648;2022-08-21T03:23:09;30.67;;;21.53;;
9547;SDS011;4812;51.992;8.648;2022-08-21T03:25:39;25.47;;;21.20;;
9547;SDS011;4812;51.992;8.648;2022-08-21T03:28:08;28.23;;;21.17;;
9547;SDS011;4812;51.992;8.648;2022-08-21T03:30:39;29.70;;;21.97;;
9547;SDS011;4812;51.992;8.648;2022-08-21T03:33:08;31.33;;;22.57;;
9547;SDS011;4812;51.992;8.648;2022-08-21T03:35:44;28.80;;;22.30;;
9547;SDS011;4812;51.992;8.648;2022-08-21T03:38:14;27.10;;;21.97;;
9547;SDS011;4812;51.992;8.648;2022-08-21T03:40:42;34.10;;;22.33;;
9547;SDS011;4812;51.992;8.648;2022-08-21T03:43:10;31.87;;;23.27;;
9547;SDS011;4812;51.992;8.648;2022-08-21T03:45:38;33.10;;;21.43;;
9547;SDS011;4812;51.992;8.648;2022-08-21T03:48:07;26.60;;;21.77;;
9547;SDS011;4812;51.992;8.648;2022-08-21T03:50:40;24.43;;;20.70;;
9547;SDS011;4812;51.992;8.648;2022-08-21T03:53:09;27.00;;;20.70;;
9547;SDS011;4812;51.992;8.648;2022-08-21T03:55:44;26.73;;;20.07;;
9547;SDS011;4812;51.992;8.648;2022-08-21T03:58:13;27.90;;;19.83;;
9547;SDS011;4812;51.992;8.648;2022-08-21T04:00:43;23.03;;;20.10;;
9547;SDS011;4812;51.992;8.648;2022-08-21T04:03:11;27.40;;;19.07;;
9547;SDS011;4812;51.992;8.648;2022-08-21T04:05:39;25.83;;;19.57;;
9547;SDS011;4812;51.992;8.648;2022-08-21T04:08:07;27.00;;;19.57;;
9547;SDS011;4812;51.992;8.648;2022-08-21T04:10:36;21.30;;;19.07;;
9547;SDS011;4812;51.992;8.648;2022-08-21T04:13:07;22.10;;;19.50;;
9547;SDS011;4812;51.992;8.648;2022-08-21T04:15:35;19.73;;;17.83;;
9547;SDS011;4812;51.992;8.648;2022-08-21T04:18:03;21.83;;;17.93;;
9547;SDS011;4812;51.992;8.648;2022-08-21T04:20:31;29.57;;;18.87;;
9547;SDS011;4812;51.992;8.648;2022-08-21T04:22:59;23.67;;;17.93;;
9547;SDS011;4812;51.992;8.648;2022-08-21T04:25:27;26.43;;;19.03;;
9547;SDS011;4812;51.992;8.648;2022-08-21T04:27:55;23.60;;;18.97;;
9547;SDS011;4812;51.992;8.648;2022-08-21T04:30:24;20.90;;;18.20;;
9547;SDS011;4812;51.992;8.648;2022-08-21T04:32:55;20.57;;;18.40;;
9547;SDS011;4812;51.992;8.648;2022-08-21T04:35:24;21.40;;;18.10;;
9547;SDS011;4812;51.992;8.648;2022-08-21T04:37:53;20.83;;;18.53;;
9547;SDS011;4812;51.992;8.648;2022-08-21T04:40:21;20.83;;;18.57;;
9547;SDS011;4812;51.992;8.648;2022-08-21T04:42:51;22.70;;;19.37;;
9547;SDS011;4812;51.992;8.648;2022-08-21T04:45:20;21.97;;;18.77;;
9547;SDS011;4812;51.992;8.648;2022-08-21T04:47:51;20.60;;;18.17;;
9547;SDS011;4812;51.992;8.648;2022-08-21T04:50:20;22.43;;;18.60;;
9547;SDS011;4812;51.992;8.648;2022-08-21T04:53:02;21.57;;;18.27;;
9547;SDS011;4812;51.992;8.648;2022-08-21T04:55:30;20.73;;;18.10;;
9547;SDS011;4812;51.992;8.648;2022-08-21T04:57:57;19.93;;;17.83;;
9547;SDS011;4812;51.992;8.648;2022-08-21T05:00:26;22.80;;;18.07;;
9547;SDS011;4812;51.992;8.648;2022-08-21T05:02:54;20.77;;;18.20;;
9547;SDS011;4812;51.992;8.648;2022-08-21T05:05:25;21.20;;;18.87;;
9547;SDS011;4812;51.992;8.648;2022-08-21T05:07:55;20.20;;;18.10;;
9547;SDS011;4812;51.992;8.648;2022-08-21T05:10:23;22.47;;;19.27;;
9547;SDS011;4812;51.992;8.648;2022-08-21T05:12:54;24.00;;;18.63;;
9547;SDS011;4812;51.992;8.648;2022-08-21T05:15:23;27.30;;;19.03;;
9547;SDS011;4812;51.992;8.648;2022-08-21T05:17:51;22.33;;;20.03;;
9547;SDS011;4812;51.992;8.648;2022-08-21T05:20:27;23.33;;;20.70;;
9547;SDS011;4812;51.992;8.648;2022-08-21T05:22:55;23.10;;;20.80;;
9547;SDS011;4812;51.992;8.648;2022-08-21T05:25:24;22.20;;;19.80;;
9547;SDS011;4812;51.992;8.648;2022-08-21T05:27:53;21.63;;;19.43;;
9547;SDS011;4812;51.992;8.648;2022-08-21T05:30:23;22.67;;;19.13;;
9547;SDS011;4812;51.992;8.648;2022-08-21T05:32:55;20.93;;;18.73;;
9547;SDS011;4812;51.992;8.648;2022-08-21T05:35:24;27.73;;;19.73;;
9547;SDS011;4812;51.992;8.648;2022-08-21T05:37:53;22.90;;;19.13;;
9547;SDS011;4812;51.992;8.648;2022-08-21T05:40:21;22.87;;;20.10;;
9547;SDS011;4812;51.992;8.648;2022-08-21T05:42:50;22.83;;;18.73;;
9547;SDS011;4812;51.992;8.648;2022-08-21T05:45:20;22.57;;;19.17;;
9547;SDS011;4812;51.992;8.648;2022-08-21T05:48:08;20.77;;;18.60;;
9547;SDS011;4812;51.992;8.648;2022-08-21T05:50:37;21.33;;;17.70;;
9547;SDS011;4812;51.992;8.648;2022-08-21T05:53:06;20.17;;;18.10;;
9547;SDS011;4812;51.992;8.648;2022-08-21T05:55:34;20.03;;;17.97;;
9547;SDS011;4812;51.992;8.648;2022-08-21T05:58:09;22.07;;;18.27;;
9547;SDS011;4812;51.992;8.648;2022-08-21T06:00:37;19.97;;;17.80;;
9547;SDS011;4812;51.992;8.648;2022-08-21T06:03:10;21.80;;;18.00;;
9547;SDS011;4812;51.992;8.648;2022-08-21T06:05:38;20.30;;;18.33;;
9547;SDS011;4812;51.992;8.648;2022-08-21T06:08:07;20.07;;;18.00;;
9547;SDS011;4812;51.992;8.648;2022-08-21T06:10:34;19.43;;;17.57;;
9547;SDS011;4812;51.992;8.648;2022-08-21T06:13:02;19.80;;;17.90;;
9547;SDS011;4812;51.992;8.648;2022-08-21T06:15:30;20.33;;;18.07;;
9547;SDS011;4812;51.992;8.648;2022-08-21T06:17:58;20.80;;;18.10;;
9547;SDS011;4812;51.992;8.648;2022-08-21T06:20:26;19.93;;;17.77;;
9547;SDS011;4812;51.992;8.648;2022-08-21T06:22:54;19.40;;;17.30;;
9547;SDS011;4812;51.992;8.648;2022-08-21T06:25:23;19.70;;;18.00;;
9547;SDS011;4812;51.992;8.648;2022-08-21T06:27:51;21.80;;;19.67;;
9547;SDS011;4812;51.992;8.648;2022-08-21T06:30:19;20.77;;;18.87;;
9547;SDS011;4812;51.992;8.648;2022-08-21T06:32:46;21.50;;;19.50;;
9547;SDS011;4812;51.992;8.648;2022-08-21T06:35:14;21.40;;;19.27;;
9547;SDS011;4812;51.992;8.648;2022-08-21T06:37:42;21.47;;;19.47;;
9547;SDS011;4812;51.992;8.648;2022-08-21T06:40:09;22.37;;;20.17;;
9547;SDS011;4812;51.992;8.648;2022-08-21T06:42:39;22.90;;;20.80;;
9547;SDS011;4812;51.992;8.648;2022-08-21T06:45:08;22.83;;;20.80;;
9547;SDS011;4812;51.992;8.648;2022-08-21T06:47:36;23.27;;;21.07;;
9547;SDS011;4812;51.992;8.648;2022-08-21T06:50:04;22.97;;;20.77;;
9547;SDS011;4812;51.992;8.648;2022-08-21T06:52:33;24.23;;;21.77;;
9547;SDS011;4812;51.992;8.648;2022-08-21T06:55:02;23.27;;;21.27;;
9547;SDS011;4812;51.992;8.648;2022-08-21T06:57:30;23.40;;;21.27;;
9547;SDS011;4812;51.992;8.648;2022-08-21T06:59:59;23.33;;;21.17;;
9547;SDS011;4812;51.992;8.648;2022-08-21T07:02:26;23.70;;;21.80;;
9547;SDS011;4812;51.992;8.648;2022-08-21T07:04:54;23.63;;;21.43;;
9547;SDS011;4812;51.992;8.648;2022-08-21T07:07:22;24.83;;;22.37;;
9547;SDS011;4812;51.992;8.648;2022-08-21T07:09:49;24.47;;;22.40;;
9547;SDS011;4812;51.992;8.648;2022-08-21T07:12:17;24.10;;;21.90;;
9547;SDS011;4812;51.992;8.648;2022-08-21T07:14:45;24.87;;;22.73;;
9547;SDS011;4812;51.992;8.648;2022-08-21T07:17:17;25.43;;;22.93;;
9547;SDS011;4812;51.992;8.648;2022-08-21T07:19:44;24.67;;;22.33;;
9547;SDS011;4812;51.992;8.648;2022-08-21T07:22:12;24.23;;;22.03;;
9547;SDS011;4812;51.992;8.648;2022-08-21T07:24:41;24.20;;;22.17;;
9547;SDS011;4812;51.992;8.648;2022-08-21T07:27:09;25.42;;;23.15;;
9547;SDS011;4812;51.992;8.648;2022-08-21T07:29:37;23.65;;;21.65;;
9547;SDS011;4812;51.992;8.648;2022-08-21T07:32:04;23.90;;;21.90;;
9547;SDS011;4812;51.992;8.648;2022-08-21T07:34:34;23.13;;;21.13;;
9547;SDS011;4812;51.992;8.648;2022-08-21T07:37:02;23.38;;;21.25;;
9547;SDS011;4812;51.992;8.648;2022-08-21T07:39:31;23.40;;;21.33;;
9547;SDS011;4812;51.992;8.648;2022-08-21T07:41:59;22.80;;;21.00;;
9547;SDS011;4812;51.992;8.648;2022-08-21T07:44:33;22.85;;;20.77;;
9547;SDS011;4812;51.992;8.648;2022-08-21T07:47:01;22.73;;;20.73;;
9547;SDS011;4812;51.992;8.648;2022-08-21T07:49:28;22.48;;;20.55;;
9547;SDS011;4812;51.992;8.648;2022-08-21T07:51:57;22.70;;;20.70;;
9547;SDS011;4812;51.992;8.648;2022-08-21T07:54:25;23.60;;;21.50;;
9547;SDS011;4812;51.992;8.648;2022-08-21T07:56:59;24.02;;;21.75;;
9547;SDS011;4812;51.992;8.648;2022-08-21T07:59:28;23.10;;;21.10;;
9547;SDS011;4812;51.992;8.648;2022-08-21T08:01:56;23.88;;;21.67;;
9547;SDS011;4812;51.992;8.648;2022-08-21T08:04:23;23.75;;;21.65;;
9547;SDS011;4812;51.992;8.648;2022-08-21T08:06:54;22.55;;;20.70;;
9547;SDS011;4812;51.992;8.648;2022-08-21T08:09:23;23.38;;;21.38;;
9547;SDS011;4812;51.992;8.648;2022-08-21T08:11:51;22.90;;;20.80;;
9547;SDS011;4812;51.992;8.648;2022-08-21T08:14:20;22.48;;;20.77;;
9547;SDS011;4812;51.992;8.648;2022-08-21T08:16:56;23.15;;;21.23;;
9547;SDS011;4812;51.992;8.648;2022-08-21T08:19:24;22.50;;;20.50;;
9547;SDS011;4812;51.992;8.648;2022-08-21T08:21:52;23.50;;;21.35;;
9547;SDS011;4812;51.992;8.648;2022-08-21T08:24:19;22.35;;;20.73;;
9547;SDS011;4812;51.992;8.648;2022-08-21T08:26:48;23.05;;;21.02;;
9547;SDS011;4812;51.992;8.648;2022-08-21T08:29:19;22.63;;;20.83;;
9547;SDS011;4812;51.992;8.648;2022-08-21T08:31:47;23.23;;;21.27;;
9547;SDS011;4812;51.992;8.648;2022-08-21T08:34:17;22.80;;;20.90;;
9547;SDS011;4812;51.992;8.648;2022-08-21T08:36:50;22.52;;;20.67;;
9547;SDS011;4812;51.992;8.648;2022-08-21T08:39:18;22.40;;;20.65;;
9547;SDS011;4812;51.992;8.648;2022-08-21T08:41:59;22.38;;;20.35;;
9547;SDS011;4812;51.992;8.648;2022-08-21T08:44:48;18.98;;;17.38;;
9547;SDS011;4812;51.992;8.648;2022-08-21T08:47:20;17.95;;;16.52;;
9547;SDS011;4812;51.992;8.648;2022-08-21T08:49:49;17.70;;;16.33;;
9547;SDS011;4812;51.992;8.648;2022-08-21T08:52:26;17.80;;;16.30;;
9547;SDS011;4812;51.992;8.648;2022-08-21T08:54:56;18.20;;;16.55;;
9547;SDS011;4812;51.992;8.648;2022-08-21T08:57:29;17.55;;;16.13;;
9547;SDS011;4812;51.992;8.648;2022-08-21T09:00:00;17.10;;;15.93;;
9547;SDS011;4812;51.992;8.648;2022-08-21T09:02:28;18.13;;;16.70;;
9547;SDS011;4812;51.992;8.648;2022-08-21T09:04:56;18.00;;;16.27;;
9547;SDS011;4812;51.992;8.648;2022-08-21T09:07:26;18.85;;;17.38;;
9547;SDS011;4812;51.992;8.648;2022-08-21T09:10:03;18.08;;;16.63;;
9547;SDS011;4812;51.992;8.648;2022-08-21T09:12:38;17.52;;;16.23;;
9547;SDS011;4812;51.992;8.648;2022-08-21T09:15:17;17.63;;;16.30;;
9547;SDS011;4812;51.992;8.648;2022-08-21T09:17:55;18.10;;;16.52;;
9547;SDS011;4812;51.992;8.648;2022-08-21T09:20:38;18.13;;;16.67;;
9547;SDS011;4812;51.992;8.648;2022-08-21T09:23:12;17.13;;;15.73;;
9547;SDS011;4812;51.992;8.648;2022-08-21T09:25:48;17.40;;;16.00;;
9547;SDS011;4812;51.992;8.648;2022-08-21T09:28:24;17.63;;;16.23;;
9547;SDS011;4812;51.992;8.648;2022-08-21T09:30:54;17.40;;;15.97;;
9547;SDS011;4812;51.992;8.648;2022-08-21T09:33:24;17.57;;;16.00;;
9547;SDS011;4812;51.992;8.648;2022-08-21T09:35:53;17.45;;;16.05;;
9547;SDS011;4812;51.992;8.648;2022-08-21T09:38:25;18.13;;;16.58;;
9547;SDS011;4812;51.992;8.648;2022-08-21T09:40:56;18.27;;;16.65;;
9547;SDS011;4812;51.992;8.648;2022-08-21T09:43:27;17.20;;;15.63;;
9547;SDS011;4812;51.992;8.648;2022-08-21T09:46:03;16.73;;;15.43;;
9547;SDS011;4812;51.992;8.648;2022-08-21T09:48:38;16.65;;;15.38;;
9547;SDS011;4812;51.992;8.648;2022-08-21T09:51:15;17.23;;;15.52;;
9547;SDS011;4812;51.992;8.648;2022-08-21T09:53:45;17.20;;;15.48;;
9547;SDS011;4812;51.992;8.648;2022-08-21T09:56:25;17.48;;;15.90;;
9547;SDS011;4812;51.992;8.648;2022-08-21T09:59:16;16.63;;;15.23;;
9547;SDS011;4812;51.992;8.648;2022-08-21T10:01:47;16.58;;;15.38;;
9547;SDS011;4812;51.992;8.648;2022-08-21T10:04:19;16.13;;;14.90;;
9547;SDS011;4812;51.992;8.648;2022-08-21T10:06:48;16.48;;;15.30;;
9547;SDS011;4812;51.992;8.648;2022-08-21T10:09:17;16.25;;;14.95;;
9547;SDS011;4812;51.992;8.648;2022-08-21T10:11:50;17.15;;;15.52;;
9547;SDS011;4812;51.992;8.648;2022-08-21T10:14:26;16.05;;;14.85;;
9547;SDS011;4812;51.992;8.648;2022-08-21T10:17:06;16.00;;;14.90;;
9547;SDS011;4812;51.992;8.648;2022-08-21T10:19:39;16.50;;;15.30;;
9547;SDS011;4812;51.992;8.648;2022-08-21T10:22:20;16.15;;;14.93;;
9547;SDS011;4812;51.992;8.648;2022-08-21T10:24:57;16.17;;;14.90;;
9547;SDS011;4812;51.992;8.648;2022-08-21T10:27:31;16.60;;;15.38;;
9547;SDS011;4812;51.992;8.648;2022-08-21T10:30:08;16.27;;;15.00;;
9547;SDS011;4812;51.992;8.648;2022-08-21T10:32:44;16.30;;;14.93;;
9547;SDS011;4812;51.992;8.648;2022-08-21T10:35:20;16.65;;;15.30;;
9547;SDS011;4812;51.992;8.648;2022-08-21T10:37:55;16.83;;;15.63;;
9547;SDS011;4812;51.992;8.648;2022-08-21T10:40:34;17.00;;;15.50;;
9547;SDS011;4812;51.992;8.648;2022-08-21T10:43:10;16.75;;;15.32;;
9547;SDS011;4812;51.992;8.648;2022-08-21T10:45:48;16.65;;;15.45;;
9547;SDS011;4812;51.992;8.648;2022-08-21T10:48:24;15.93;;;14.82;;
9547;SDS011;4812;51.992;8.648;2022-08-21T10:50:57;16.85;;;15.65;;
9547;SDS011;4812;51.992;8.648;2022-08-21T10:53:35;16.23;;;15.20;;
9547;SDS011;4812;51.992;8.648;2022-08-21T10:56:11;16.83;;;15.52;;
9547;SDS011;4812;51.992;8.648;2022-08-21T10:58:44;16.00;;;14.85;;
9547;SDS011;4812;51.992;8.648;2022-08-21T11:01:18;17.48;;;15.73;;
9547;SDS011;4812;51.992;8.648;2022-08-21T11:03:50;16.50;;;15.13;;
9547;SDS011;4812;51.992;8.648;2022-08-21T11:06:21;17.33;;;15.95;;
9547;SDS011;4812;51.992;8.648;2022-08-21T11:08:51;16.52;;;15.43;;
9547;SDS011;4812;51.992;8.648;2022-08-21T11:11:22;16.08;;;14.90;;
9547;SDS011;4812;51.992;8.648;2022-08-21T11:14:02;16.42;;;15.10;;
9547;SDS011;4812;51.992;8.648;2022-08-21T11:16:41;15.80;;;14.73;;
9547;SDS011;4812;51.992;8.648;2022-08-21T11:19:10;16.30;;;15.02;;
9547;SDS011;4812;51.992;8.648;2022-08-21T11:21:42;15.57;;;14.60;;
9547;SDS011;4812;51.992;8.648;2022-08-21T11:24:15;16.63;;;15.43;;
9547;SDS011;4812;51.992;8.648;2022-08-21T11:26:47;15.90;;;14.70;;
9547;SDS011;4812;51.992;8.648;2022-08-21T11:29:19;16.05;;;14.68;;
9547;SDS011;4812;51.992;8.648;2022-08-21T11:32:01;16.13;;;14.93;;
9547;SDS011;4812;51.992;8.648;2022-08-21T11:34:43;16.38;;;15.13;;
9547;SDS011;4812;51.992;8.648;2022-08-21T11:37:17;15.98;;;14.77;;
9547;SDS011;4812;51.992;8.648;2022-08-21T11:39:50;16.33;;;14.90;;
9547;SDS011;4812;51.992;8.648;2022-08-21T11:42:23;15.50;;;14.32;;
9547;SDS011;4812;51.992;8.648;2022-08-21T11:44:54;15.88;;;14.75;;
9547;SDS011;4812;51.992;8.648;2022-08-21T11:47:37;16.35;;;15.13;;
9547;SDS011;4812;51.992;8.648;2022-08-21T11:50:21;16.42;;;14.88;;
9547;SDS011;4812;51.992;8.648;2022-08-21T11:53:04;15.65;;;14.60;;
9547;SDS011;4812;51.992;8.648;2022-08-21T11:55:36;15.50;;;14.38;;
9547;SDS011;4812;51.992;8.648;2022-08-21T11:58:07;16.02;;;14.70;;
9547;SDS011;4812;51.992;8.648;2022-08-21T12:00:39;15.20;;;14.20;;
9547;SDS011;4812;51.992;8.648;2022-08-21T12:03:11;16.15;;;14.70;;
9547;SDS011;4812;51.992;8.648;2022-08-21T12:05:41;16.02;;;14.75;;
9547;SDS011;4812;51.992;8.648;2022-08-21T12:08:12;15.85;;;14.68;;
9547;SDS011;4812;51.992;8.648;2022-08-21T12:10:46;15.82;;;14.63;;
9547;SDS011;4812;51.992;8.648;2022-08-21T12:13:22;15.77;;;14.65;;
9547;SDS011;4812;51.992;8.648;2022-08-21T12:16:09;15.40;;;14.50;;
9547;SDS011;4812;51.992;8.648;2022-08-21T12:18:40;16.13;;;14.90;;
9547;SDS011;4812;51.992;8.648;2022-08-21T12:21:19;15.32;;;14.13;;
9547;SDS011;4812;51.992;8.648;2022-08-21T12:23:49;15.68;;;14.70;;
9547;SDS011;4812;51.992;8.648;2022-08-21T12:26:28;15.93;;;14.65;;
9547;SDS011;4812;51.992;8.648;2022-08-21T12:29:11;15.35;;;14.05;;
9547;SDS011;4812;51.992;8.648;2022-08-21T12:34:34;15.98;;;14.60;;
9547;SDS011;4812;51.992;8.648;2022-08-21T12:37:04;15.45;;;14.30;;
9547;SDS011;4812;51.992;8.648;2022-08-21T12:39:36;15.32;;;14.13;;
9547;SDS011;4812;51.992;8.648;2022-08-21T12:42:06;14.88;;;13.90;;
9547;SDS011;4812;51.992;8.648;2022-08-21T12:44:42;15.45;;;14.20;;
9547;SDS011;4812;51.992;8.648;2022-08-21T12:47:15;14.75;;;13.68;;
9547;SDS011;4812;51.992;8.648;2022-08-21T12:49:50;15.30;;;14.10;;
9547;SDS011;4812;51.992;8.648;2022-08-21T12:52:22;14.60;;;13.50;;
9547;SDS011;4812;51.992;8.648;2022-08-21T12:54:50;15.15;;;14.15;;
9547;SDS011;4812;51.992;8.648;2022-08-21T12:57:19;14.27;;;13.38;;
9547;SDS011;4812;51.992;8.648;2022-08-21T12:59:52;14.80;;;13.80;;
9547;SDS011;4812;51.992;8.648;2022-08-21T13:02:22;14.55;;;13.50;;
9547;SDS011;4812;51.992;8.648;2022-08-21T13:04:52;14.80;;;13.60;;
9547;SDS011;4812;51.992;8.648;2022-08-21T13:07:25;14.80;;;13.88;;
9547;SDS011;4812;51.992;8.648;2022-08-21T13:09:56;14.65;;;13.48;;
9547;SDS011;4812;51.992;8.648;2022-08-21T13:12:25;14.15;;;13.07;;
9547;SDS011;4812;51.992;8.648;2022-08-21T13:14:59;14.63;;;13.57;;
9547;SDS011;4812;51.992;8.648;2022-08-21T13:17:30;14.57;;;13.45;;
9547;SDS011;4812;51.992;8.648;2022-08-21T13:20:00;14.20;;;13.30;;
9547;SDS011;4812;51.992;8.648;2022-08-21T13:22:30;13.95;;;13.05;;
9547;SDS011;4812;51.992;8.648;2022-08-21T13:25:00;14.70;;;13.20;;
9547;SDS011;4812;51.992;8.648;2022-08-21T13:27:32;13.93;;;13.02;;
9547;SDS011;4812;51.992;8.648;2022-08-21T13:30:03;13.40;;;12.60;;
9547;SDS011;4812;51.992;8.648;2022-08-21T13:32:33;13.80;;;13.00;;
9547;SDS011;4812;51.992;8.648;2022-08-21T13:35:09;13.30;;;12.48;;
9547;SDS011;4812;51.992;8.648;2022-08-21T13:37:39;13.88;;;12.90;;
9547;SDS011;4812;51.992;8.648;2022-08-21T13:40:09;13.70;;;12.77;;
9547;SDS011;4812;51.992;8.648;2022-08-21T13:42:40;14.05;;;13.15;;
9547;SDS011;4812;51.992;8.648;2022-08-21T13:45:11;13.65;;;12.60;;
9547;SDS011;4812;51.992;8.648;2022-08-21T13:47:41;13.70;;;12.80;;
9547;SDS011;4812;51.992;8.648;2022-08-21T13:50:10;13.77;;;12.90;;
9547;SDS011;4812;51.992;8.648;2022-08-21T13:52:46;13.80;;;12.90;;
9547;SDS011;4812;51.992;8.648;2022-08-21T13:55:15;13.93;;;12.93;;
9547;SDS011;4812;51.992;8.648;2022-08-21T13:57:43;14.15;;;13.15;;
9547;SDS011;4812;51.992;8.648;2022-08-21T14:00:13;14.23;;;13.10;;
9547;SDS011;4812;51.992;8.648;2022-08-21T14:02:43;13.43;;;12.43;;
9547;SDS011;4812;51.992;8.648;2022-08-21T14:05:16;13.65;;;12.65;;
9547;SDS011;4812;51.992;8.648;2022-08-21T14:07:47;13.85;;;12.73;;
9547;SDS011;4812;51.992;8.648;2022-08-21T14:10:19;14.90;;;13.80;;
9547;SDS011;4812;51.992;8.648;2022-08-21T14:12:48;14.73;;;13.73;;
9547;SDS011;4812;51.992;8.648;2022-08-21T14:15:20;14.90;;;13.90;;
9547;SDS011;4812;51.992;8.648;2022-08-21T14:17:51;14.23;;;13.23;;
9547;SDS011;4812;51.992;8.648;2022-08-21T14:20:28;14.13;;;13.02;;
9547;SDS011;4812;51.992;8.648;2022-08-21T14:22:57;14.07;;;13.07;;
9547;SDS011;4812;51.992;8.648;2022-08-21T14:25:29;14.25;;;13.25;;
9547;SDS011;4812;51.992;8.648;2022-08-21T14:28:05;14.38;;;13.23;;
9547;SDS011;4812;51.992;8.648;2022-08-21T14:30:45;13.75;;;12.77;;
9547;SDS011;4812;51.992;8.648;2022-08-21T14:33:18;13.43;;;12.63;;
9547;SDS011;4812;51.992;8.648;2022-08-21T14:35:52;13.48;;;12.68;;
9547;SDS011;4812;51.992;8.648;2022-08-21T14:38:20;14.38;;;13.45;;
9547;SDS011;4812;51.992;8.648;2022-08-21T14:40:53;14.45;;;13.23;;
9547;SDS011;4812;51.992;8.648;2022-08-21T14:43:22;14.35;;;13.20;;
9547;SDS011;4812;51.992;8.648;2022-08-21T14:45:50;14.30;;;13.35;;
9547;SDS011;4812;51.992;8.648;2022-08-21T14:48:18;14.23;;;13.25;;
9547;SDS011;4812;51.992;8.648;2022-08-21T14:50:46;14.73;;;13.70;;
9547;SDS011;4812;51.992;8.648;2022-08-21T14:53:14;13.70;;;12.82;;
9547;SDS011;4812;51.992;8.648;2022-08-21T14:55:42;14.80;;;13.57;;
9547;SDS011;4812;51.992;8.648;2022-08-21T14:58:28;13.90;;;13.10;;
9547;SDS011;4812;51.992;8.648;2022-08-21T15:00:56;14.40;;;13.32;;
9547;SDS011;4812;51.992;8.648;2022-08-21T15:03:29;14.20;;;13.30;;
9547;SDS011;4812;51.992;8.648;2022-08-21T15:05:58;14.23;;;13.23;;
9547;SDS011;4812;51.992;8.648;2022-08-21T15:08:27;14.30;;;13.20;;
9547;SDS011;4812;51.992;8.648;2022-08-21T15:10:55;14.32;;;13.23;;
9547;SDS011;4812;51.992;8.648;2022-08-21T15:13:38;13.48;;;12.45;;